LavenderCAM.net
Leatherhead Weather
 
Leatherhead Weather
 
 





Aviation weather for

London Heathrow (EGLL) and London Gatwick (EGKK)



London Heathrow (EGLL) METAR / Surface Actual
London / Heathrow Airport, United Kingdom (EGLL) 51-29N 000-27W 0M
Aug 07, 2022 - 07:50 PM EDT / 2022.08.07 2350 UTC
Wind: from the NNE (030 degrees) at 5 MPH (4 KT) (direction variable):0
Visibility: greater than 7 mile(s):0
Temperature: 68 F (20 C)
Dew Point: 48 F (9 C)
Relative Humidity: 49%
Pressure (altimeter): 30.27 in. Hg (1025 hPa)
ob: EGLL 072350Z AUTO 03004KT 360V060 9999 NCD 20/09 Q1025 NOSIG
cycle: 0
London Heathrow (EGLL) TAF / Forecast
2022/08/07 18:09
TAF EGLL 071654Z 0718/0824 01007KT CAVOK


London Gatwick (EGKK) METAR / Surface Actual
London / Gatwick Airport, United Kingdom (EGKK) 51-09N 000-11W 0M
Aug 07, 2022 - 07:50 PM EDT / 2022.08.07 2350 UTC
Wind: from the ENE (070 degrees) at 5 MPH (4 KT):0
Visibility: greater than 7 mile(s):0
Temperature: 57 F (14 C)
Dew Point: 50 F (10 C)
Relative Humidity: 76%
Pressure (altimeter): 30.27 in. Hg (1025 hPa)
ob: EGKK 072350Z 07004KT CAVOK 14/10 Q1025
cycle: 0
London Gatwick (EGKK) TAF / Forecast
2022/08/07 18:09
TAF EGKK 071658Z 0718/0824 36005KT CAVOK PROB30 
      TEMPO 0803/0808 9000